sensor_id;sensor_type;location;lat;lon;timestamp;pressure;altitude;pressure_sealevel;temperature;humidity
71126;BME280;58785;55.566;38.058;2022-11-15T00:01:45;100970.91;;;1.25;53.58
71126;BME280;58785;55.566;38.058;2022-11-15T00:04:11;100969.34;;;1.21;53.84
71126;BME280;58785;55.566;38.058;2022-11-15T00:06:36;100975.84;;;1.33;53.93
71126;BME280;58785;55.566;38.058;2022-11-15T00:09:03;100961.13;;;1.29;53.77
71126;BME280;58785;55.566;38.058;2022-11-15T00:11:28;100973.91;;;1.36;53.57
71126;BME280;58785;55.566;38.058;2022-11-15T00:13:55;100966.81;;;1.38;53.86
71126;BME280;58785;55.566;38.058;2022-11-15T00:16:21;100955.47;;;1.38;54.15
71126;BME280;58785;55.566;38.058;2022-11-15T00:18:47;100968.25;;;1.46;54.16
71126;BME280;58785;55.566;38.058;2022-11-15T00:21:13;100960.31;;;1.47;53.70
71126;BME280;58785;55.566;38.058;2022-11-15T00:23:39;100958.69;;;1.44;53.85
71126;BME280;58785;55.566;38.058;2022-11-15T00:26:05;100967.94;;;1.53;53.95
71126;BME280;58785;55.566;38.058;2022-11-15T00:28:31;100967.06;;;1.53;54.11
71126;BME280;58785;55.566;38.058;2022-11-15T00:31:04;100970.63;;;1.52;53.91
71126;BME280;58785;55.566;38.058;2022-11-15T00:33:30;100958.25;;;1.54;54.04
71126;BME280;58785;55.566;38.058;2022-11-15T00:36:00;100946.75;;;1.56;54.12
71126;BME280;58785;55.566;38.058;2022-11-15T00:38:31;100946.75;;;1.56;53.90
71126;BME280;58785;55.566;38.058;2022-11-15T00:40:56;100945.38;;;1.48;53.90
71126;BME280;58785;55.566;38.058;2022-11-15T00:43:22;100935.44;;;1.35;54.09
71126;BME280;58785;55.566;38.058;2022-11-15T00:45:47;100947.72;;;1.35;53.70
71126;BME280;58785;55.566;38.058;2022-11-15T00:48:13;100951.28;;;1.34;54.01
71126;BME280;58785;55.566;38.058;2022-11-15T00:50:39;100953.13;;;1.32;53.72
71126;BME280;58785;55.566;38.058;2022-11-15T00:53:05;100939.06;;;1.33;54.23
71126;BME280;58785;55.566;38.058;2022-11-15T00:55:30;100936.44;;;1.33;54.01
71126;BME280;58785;55.566;38.058;2022-11-15T00:57:56;100943.16;;;1.38;54.13
71126;BME280;58785;55.566;38.058;2022-11-15T01:00:22;100928.41;;;1.36;54.09
71126;BME280;58785;55.566;38.058;2022-11-15T01:02:47;100935.19;;;1.41;54.15
71126;BME280;58785;55.566;38.058;2022-11-15T01:05:13;100928.06;;;1.43;54.15
71126;BME280;58785;55.566;38.058;2022-11-15T01:07:39;100925.94;;;1.52;54.22
71126;BME280;58785;55.566;38.058;2022-11-15T01:10:05;100914.63;;;1.50;54.53
71126;BME280;58785;55.566;38.058;2022-11-15T01:12:31;100919.63;;;1.56;54.25
71126;BME280;58785;55.566;38.058;2022-11-15T01:14:57;100915.13;;;1.58;54.58
71126;BME280;58785;55.566;38.058;2022-11-15T01:17:23;100902.16;;;1.55;54.44
71126;BME280;58785;55.566;38.058;2022-11-15T01:19:49;100919.63;;;1.56;54.27
71126;BME280;58785;55.566;38.058;2022-11-15T01:22:14;100919.97;;;1.67;54.30
71126;BME280;58785;55.566;38.058;2022-11-15T01:24:40;100922.03;;;1.79;54.42
71126;BME280;58785;55.566;38.058;2022-11-15T01:27:06;100922.84;;;1.81;54.23
71126;BME280;58785;55.566;38.058;2022-11-15T01:29:31;100915.91;;;1.79;54.66
71126;BME280;58785;55.566;38.058;2022-11-15T01:31:57;100916.84;;;1.78;54.80
71126;BME280;58785;55.566;38.058;2022-11-15T01:34:23;100904.63;;;1.77;54.69
71126;BME280;58785;55.566;38.058;2022-11-15T01:36:48;100918.00;;;1.91;54.55
71126;BME280;58785;55.566;38.058;2022-11-15T01:39:14;100900.28;;;1.94;54.77
71126;BME280;58785;55.566;38.058;2022-11-15T01:41:40;100915.47;;;2.07;54.58
71126;BME280;58785;55.566;38.058;2022-11-15T01:46:57;100881.97;;;2.10;54.72
71126;BME280;58785;55.566;38.058;2022-11-15T01:49:24;100894.75;;;2.18;55.30
71126;BME280;58785;55.566;38.058;2022-11-15T01:51:53;100898.09;;;2.21;55.20
71126;BME280;58785;55.566;38.058;2022-11-15T01:54:21;100888.34;;;2.23;55.10
71126;BME280;58785;55.566;38.058;2022-11-15T01:56:58;100879.44;;;2.26;55.57
71126;BME280;58785;55.566;38.058;2022-11-15T01:59:25;100871.78;;;2.21;55.22
71126;BME280;58785;55.566;38.058;2022-11-15T02:01:51;100892.31;;;2.32;55.23
71126;BME280;58785;55.566;38.058;2022-11-15T02:04:24;100885.19;;;2.34;55.81
71126;BME280;58785;55.566;38.058;2022-11-15T02:06:50;100889.53;;;2.35;55.33
71126;BME280;58785;55.566;38.058;2022-11-15T02:09:16;100894.78;;;2.35;56.07
71126;BME280;58785;55.566;38.058;2022-11-15T02:11:43;100892.06;;;2.37;56.03
71126;BME280;58785;55.566;38.058;2022-11-15T02:14:10;100878.22;;;2.33;55.95
71126;BME280;58785;55.566;38.058;2022-11-15T02:30:45;100876.84;;;2.43;56.13
71126;BME280;58785;55.566;38.058;2022-11-15T02:33:31;100864.75;;;2.39;56.40
71126;BME280;58785;55.566;38.058;2022-11-15T02:41:59;100870.63;;;2.44;56.45
71126;BME280;58785;55.566;38.058;2022-11-15T02:44:43;100869.78;;;2.44;56.61
71126;BME280;58785;55.566;38.058;2022-11-15T02:47:13;100863.69;;;2.43;56.75
71126;BME280;58785;55.566;38.058;2022-11-15T02:49:53;100861.81;;;2.45;56.54
71126;BME280;58785;55.566;38.058;2022-11-15T02:52:21;100868.78;;;2.46;56.40
71126;BME280;58785;55.566;38.058;2022-11-15T02:54:58;100867.84;;;2.47;56.46
71126;BME280;58785;55.566;38.058;2022-11-15T03:00:06;100879.22;;;2.48;56.88
71126;BME280;58785;55.566;38.058;2022-11-15T03:05:47;100850.44;;;2.45;56.50
71126;BME280;58785;55.566;38.058;2022-11-15T03:08:26;100854.53;;;2.50;56.43
71126;BME280;58785;55.566;38.058;2022-11-15T03:14:02;100847.56;;;2.49;56.10
71126;BME280;58785;55.566;38.058;2022-11-15T03:19:12;100837.75;;;2.53;56.24
71126;BME280;58785;55.566;38.058;2022-11-15T03:21:40;100839.66;;;2.49;56.32
71126;BME280;58785;55.566;38.058;2022-11-15T03:24:07;100844.00;;;2.50;56.55
71126;BME280;58785;55.566;38.058;2022-11-15T03:26:36;100845.63;;;2.53;56.82
71126;BME280;58785;55.566;38.058;2022-11-15T03:29:08;100842.16;;;2.52;56.61
71126;BME280;58785;55.566;38.058;2022-11-15T03:31:39;100832.56;;;2.51;56.29
71126;BME280;58785;55.566;38.058;2022-11-15T03:34:20;100828.16;;;2.52;56.57
71126;BME280;58785;55.566;38.058;2022-11-15T03:36:49;100832.63;;;2.50;56.48
71126;BME280;58785;55.566;38.058;2022-11-15T03:39:16;100823.19;;;2.46;56.93
71126;BME280;58785;55.566;38.058;2022-11-15T03:42:08;100814.28;;;2.48;56.27
71126;BME280;58785;55.566;38.058;2022-11-15T03:47:52;100827.28;;;2.51;56.78
71126;BME280;58785;55.566;38.058;2022-11-15T03:50:21;100834.94;;;2.56;56.55
71126;BME280;58785;55.566;38.058;2022-11-15T03:52:48;100835.78;;;2.56;56.88
71126;BME280;58785;55.566;38.058;2022-11-15T03:55:20;100842.84;;;2.56;56.29
71126;BME280;58785;55.566;38.058;2022-11-15T03:57:47;100845.56;;;2.54;56.15
71126;BME280;58785;55.566;38.058;2022-11-15T04:00:14;100844.53;;;2.40;56.42
71126;BME280;58785;55.566;38.058;2022-11-15T04:02:40;100844.63;;;2.38;56.48
71126;BME280;58785;55.566;38.058;2022-11-15T04:05:06;100842.00;;;2.38;56.25
71126;BME280;58785;55.566;38.058;2022-11-15T04:07:31;100845.38;;;2.40;56.18
71126;BME280;58785;55.566;38.058;2022-11-15T04:09:57;100854.22;;;2.39;56.51
71126;BME280;58785;55.566;38.058;2022-11-15T04:12:34;100830.69;;;2.36;55.99
71126;BME280;58785;55.566;38.058;2022-11-15T04:15:03;100826.06;;;2.41;56.00
71126;BME280;58785;55.566;38.058;2022-11-15T04:22:54;100826.44;;;2.51;56.02
71126;BME280;58785;55.566;38.058;2022-11-15T04:25:38;100830.81;;;2.50;55.79
71126;BME280;58785;55.566;38.058;2022-11-15T04:28:03;100820.31;;;2.50;55.49
71126;BME280;58785;55.566;38.058;2022-11-15T04:30:29;100824.66;;;2.51;56.22
71126;BME280;58785;55.566;38.058;2022-11-15T04:32:54;100824.50;;;2.54;55.90
71126;BME280;58785;55.566;38.058;2022-11-15T04:35:20;100816.81;;;2.50;55.34
71126;BME280;58785;55.566;38.058;2022-11-15T04:37:46;100807.47;;;2.44;55.49
71126;BME280;58785;55.566;38.058;2022-11-15T04:40:11;100819.53;;;2.48;55.78
71126;BME280;58785;55.566;38.058;2022-11-15T04:42:40;100818.00;;;2.44;55.95
71126;BME280;58785;55.566;38.058;2022-11-15T04:45:07;100815.53;;;2.41;55.52
71126;BME280;58785;55.566;38.058;2022-11-15T04:47:33;100803.44;;;2.37;56.16
71126;BME280;58785;55.566;38.058;2022-11-15T04:49:58;100800.97;;;2.34;55.75
71126;BME280;58785;55.566;38.058;2022-11-15T04:52:24;100804.69;;;2.30;56.00
71126;BME280;58785;55.566;38.058;2022-11-15T04:54:49;100802.97;;;2.29;56.28
71126;BME280;58785;55.566;38.058;2022-11-15T04:57:15;100809.81;;;2.33;56.05
71126;BME280;58785;55.566;38.058;2022-11-15T04:59:40;100805.47;;;2.32;56.15
71126;BME280;58785;55.566;38.058;2022-11-15T05:02:06;100806.41;;;2.31;55.99
71126;BME280;58785;55.566;38.058;2022-11-15T05:04:31;100787.28;;;2.27;55.66
71126;BME280;58785;55.566;38.058;2022-11-15T05:06:57;100796.66;;;2.33;56.01
71126;BME280;58785;55.566;38.058;2022-11-15T05:09:22;100790.66;;;2.29;55.81
71126;BME280;58785;55.566;38.058;2022-11-15T05:11:48;100794.94;;;2.32;55.55
71126;BME280;58785;55.566;38.058;2022-11-15T05:14:14;100791.53;;;2.30;55.54
71126;BME280;58785;55.566;38.058;2022-11-15T05:16:40;100793.16;;;2.33;55.62
71126;BME280;58785;55.566;38.058;2022-11-15T05:19:06;100794.09;;;2.32;55.78
71126;BME280;58785;55.566;38.058;2022-11-15T05:21:32;100796.78;;;2.30;55.80
71126;BME280;58785;55.566;38.058;2022-11-15T05:23:58;100791.53;;;2.30;55.76
71126;BME280;58785;55.566;38.058;2022-11-15T05:26:23;100792.41;;;2.30;55.75
71126;BME280;58785;55.566;38.058;2022-11-15T05:28:56;100796.41;;;2.38;55.72
71126;BME280;58785;55.566;38.058;2022-11-15T05:31:22;100788.75;;;2.33;55.60
71126;BME280;58785;55.566;38.058;2022-11-15T05:33:50;100796.25;;;2.41;55.41
71126;BME280;58785;55.566;38.058;2022-11-15T05:36:38;100794.47;;;2.41;55.60
71126;BME280;58785;55.566;38.058;2022-11-15T05:39:05;100795.31;;;2.42;55.66
71126;BME280;58785;55.566;38.058;2022-11-15T05:41:34;100789.53;;;2.35;55.83
71126;BME280;58785;55.566;38.058;2022-11-15T05:44:02;100794.47;;;2.41;55.81
71126;BME280;58785;55.566;38.058;2022-11-15T05:46:30;100796.41;;;2.38;55.58
71126;BME280;58785;55.566;38.058;2022-11-15T05:48:56;100794.63;;;2.38;55.68
71126;BME280;58785;55.566;38.058;2022-11-15T05:51:22;100789.53;;;2.35;55.94
71126;BME280;58785;55.566;38.058;2022-11-15T05:53:49;100791.38;;;2.33;55.70
71126;BME280;58785;55.566;38.058;2022-11-15T05:56:16;100789.59;;;2.34;55.69
71126;BME280;58785;55.566;38.058;2022-11-15T05:58:42;100777.38;;;2.33;55.11
71126;BME280;58785;55.566;38.058;2022-11-15T06:01:08;100773.91;;;2.32;55.79
71126;BME280;58785;55.566;38.058;2022-11-15T06:03:34;100776.53;;;2.32;55.61
71126;BME280;58785;55.566;38.058;2022-11-15T06:06:00;100772.88;;;2.35;55.43
71126;BME280;58785;55.566;38.058;2022-11-15T06:08:25;100779.00;;;2.35;55.23
71126;BME280;58785;55.566;38.058;2022-11-15T06:10:51;100777.22;;;2.36;55.64
71126;BME280;58785;55.566;38.058;2022-11-15T06:13:16;100777.97;;;2.38;55.59
71126;BME280;58785;55.566;38.058;2022-11-15T06:15:42;100773.66;;;2.37;55.11
71126;BME280;58785;55.566;38.058;2022-11-15T06:18:07;100757.94;;;2.35;55.43
71126;BME280;58785;55.566;38.058;2022-11-15T06:20:33;100773.19;;;2.46;54.84
71126;BME280;58785;55.566;38.058;2022-11-15T06:23:00;100769.94;;;2.41;55.14
71126;BME280;58785;55.566;38.058;2022-11-15T06:25:27;100783.41;;;2.52;55.01
71126;BME280;58785;55.566;38.058;2022-11-15T06:27:54;100770.06;;;2.55;54.91
71126;BME280;58785;55.566;38.058;2022-11-15T06:30:20;100765.41;;;2.60;54.74
71126;BME280;58785;55.566;38.058;2022-11-15T06:32:46;100772.03;;;2.67;54.48
71126;BME280;58785;55.566;38.058;2022-11-15T06:35:12;100756.16;;;2.69;54.56
71126;BME280;58785;55.566;38.058;2022-11-15T06:37:38;100761.88;;;2.77;54.26
71126;BME280;58785;55.566;38.058;2022-11-15T06:40:04;100750.00;;;2.85;54.34
71126;BME280;58785;55.566;38.058;2022-11-15T06:42:30;100756.47;;;2.96;54.45
71126;BME280;58785;55.566;38.058;2022-11-15T06:44:56;100744.91;;;2.98;54.28
71126;BME280;58785;55.566;38.058;2022-11-15T06:47:21;100748.31;;;3.00;53.91
71126;BME280;58785;55.566;38.058;2022-11-15T06:49:47;100753.56;;;3.00;53.60
71126;BME280;58785;55.566;38.058;2022-11-15T06:52:12;100752.81;;;2.98;54.15
71126;BME280;58785;55.566;38.058;2022-11-15T06:54:38;100750.28;;;2.97;53.94
71126;BME280;58785;55.566;38.058;2022-11-15T06:57:04;100753.00;;;2.95;54.06
71126;BME280;58785;55.566;38.058;2022-11-15T06:59:30;100750.84;;;2.86;54.54
71126;BME280;58785;55.566;38.058;2022-11-15T07:01:55;100750.84;;;2.86;54.30
71126;BME280;58785;55.566;38.058;2022-11-15T07:04:21;100750.94;;;2.84;54.16
71126;BME280;58785;55.566;38.058;2022-11-15T07:06:47;100745.00;;;2.81;54.57
71126;BME280;58785;55.566;38.058;2022-11-15T07:09:13;100741.16;;;2.86;54.49
71126;BME280;58785;55.566;38.058;2022-11-15T07:11:39;100749.59;;;2.93;53.89
71126;BME280;58785;55.566;38.058;2022-11-15T07:14:05;100751.53;;;2.89;54.01
71126;BME280;58785;55.566;38.058;2022-11-15T07:16:30;100747.19;;;2.88;54.39
71126;BME280;58785;55.566;38.058;2022-11-15T07:18:56;100752.56;;;2.87;53.88
71126;BME280;58785;55.566;38.058;2022-11-15T07:21:21;100743.56;;;2.91;54.33
71126;BME280;58785;55.566;38.058;2022-11-15T07:23:47;100749.34;;;2.98;54.36
71126;BME280;58785;55.566;38.058;2022-11-15T07:26:13;100733.44;;;2.99;54.15
71126;BME280;58785;55.566;38.058;2022-11-15T07:28:38;100728.69;;;3.06;53.97
71126;BME280;58785;55.566;38.058;2022-11-15T07:31:05;100741.53;;;3.12;54.07
71126;BME280;58785;55.566;38.058;2022-11-15T07:33:31;100729.38;;;3.09;53.76
71126;BME280;58785;55.566;38.058;2022-11-15T07:36:01;100720.03;;;3.04;53.94
71126;BME280;58785;55.566;38.058;2022-11-15T07:38:28;100721.72;;;3.05;53.76
71126;BME280;58785;55.566;38.058;2022-11-15T07:40:58;100706.25;;;2.99;53.64
71126;BME280;58785;55.566;38.058;2022-11-15T07:43:24;100719.94;;;3.05;53.94
71126;BME280;58785;55.566;38.058;2022-11-15T07:45:49;100729.31;;;3.11;54.11
71126;BME280;58785;55.566;38.058;2022-11-15T07:48:15;100731.00;;;3.12;54.00
71126;BME280;58785;55.566;38.058;2022-11-15T07:50:41;100720.97;;;3.03;53.75
71126;BME280;58785;55.566;38.058;2022-11-15T07:53:08;100710.00;;;2.95;53.84
71126;BME280;58785;55.566;38.058;2022-11-15T07:55:34;100710.84;;;2.95;54.06
71126;BME280;58785;55.566;38.058;2022-11-15T07:58:01;100712.53;;;2.96;54.19
71126;BME280;58785;55.566;38.058;2022-11-15T08:00:27;100696.06;;;2.93;54.13
71126;BME280;58785;55.566;38.058;2022-11-15T08:03:01;100705.56;;;2.95;53.88
71126;BME280;58785;55.566;38.058;2022-11-15T08:05:27;100707.53;;;2.92;53.92
71126;BME280;58785;55.566;38.058;2022-11-15T08:07:55;100694.09;;;2.80;54.21
71126;BME280;58785;55.566;38.058;2022-11-15T08:10:20;100687.97;;;2.80;53.64
71126;BME280;58785;55.566;38.058;2022-11-15T08:12:46;100694.69;;;2.85;54.15
71126;BME280;58785;55.566;38.058;2022-11-15T08:15:11;100695.47;;;2.87;54.06
71126;BME280;58785;55.566;38.058;2022-11-15T08:17:37;100698.84;;;2.89;54.07
71126;BME280;58785;55.566;38.058;2022-11-15T08:20:03;100692.72;;;2.89;53.94
71126;BME280;58785;55.566;38.058;2022-11-15T08:22:30;100696.06;;;2.93;53.75
71126;BME280;58785;55.566;38.058;2022-11-15T08:24:55;100678.03;;;2.85;53.87
71126;BME280;58785;55.566;38.058;2022-11-15T08:27:21;100689.44;;;2.85;53.94
71126;BME280;58785;55.566;38.058;2022-11-15T08:29:48;100682.66;;;2.81;54.13
71126;BME280;58785;55.566;38.058;2022-11-15T08:32:14;100690.09;;;2.89;53.93
71126;BME280;58785;55.566;38.058;2022-11-15T08:34:40;100677.03;;;2.87;53.94
71126;BME280;58785;55.566;38.058;2022-11-15T08:37:05;100688.94;;;2.95;53.55
71126;BME280;58785;55.566;38.058;2022-11-15T08:39:33;100684.50;;;2.95;53.77
71126;BME280;58785;55.566;38.058;2022-11-15T08:41:59;100690.72;;;2.94;53.80
71126;BME280;58785;55.566;38.058;2022-11-15T08:44:24;100674.75;;;2.81;54.22
71126;BME280;58785;55.566;38.058;2022-11-15T08:46:50;100685.88;;;2.86;54.00
71126;BME280;58785;55.566;38.058;2022-11-15T08:49:16;100671.19;;;2.82;54.25
71126;BME280;58785;55.566;38.058;2022-11-15T08:51:41;100667.50;;;2.85;54.12
71126;BME280;58785;55.566;38.058;2022-11-15T08:54:08;100657.66;;;2.88;53.76
71126;BME280;58785;55.566;38.058;2022-11-15T08:56:34;100644.16;;;2.95;53.74
71126;BME280;58785;55.566;38.058;2022-11-15T08:58:59;100656.44;;;3.10;53.88
71126;BME280;58785;55.566;38.058;2022-11-15T09:01:25;100643.97;;;3.13;53.72
71126;BME280;58785;55.566;38.058;2022-11-15T09:03:51;100639.25;;;3.18;53.65
71126;BME280;58785;55.566;38.058;2022-11-15T09:06:16;100657.19;;;3.28;53.35
71126;BME280;58785;55.566;38.058;2022-11-15T09:08:42;100660.59;;;3.30;53.32
71126;BME280;58785;55.566;38.058;2022-11-15T09:11:10;100646.97;;;3.37;53.33
71126;BME280;58785;55.566;38.058;2022-11-15T09:13:36;100641.81;;;3.50;52.86
71126;BME280;58785;55.566;38.058;2022-11-15T09:16:05;100637.91;;;3.57;52.71
71126;BME280;58785;55.566;38.058;2022-11-15T09:18:31;100639.34;;;3.63;52.51
71126;BME280;58785;55.566;38.058;2022-11-15T09:21:00;100630.97;;;3.70;53.07
71126;BME280;58785;55.566;38.058;2022-11-15T09:23:27;100639.00;;;3.83;52.55
71126;BME280;58785;55.566;38.058;2022-11-15T09:25:58;100641.38;;;3.88;52.48
71126;BME280;58785;55.566;38.058;2022-11-15T09:28:25;100629.31;;;3.84;52.57
71126;BME280;58785;55.566;38.058;2022-11-15T09:30:50;100626.19;;;3.77;52.76
71126;BME280;58785;55.566;38.058;2022-11-15T09:33:16;100630.22;;;3.68;53.06
71126;BME280;58785;55.566;38.058;2022-11-15T09:35:41;100632.09;;;3.66;53.02
71126;BME280;58785;55.566;38.058;2022-11-15T09:38:07;100621.84;;;3.62;53.21
71126;BME280;58785;55.566;38.058;2022-11-15T09:40:36;100617.84;;;3.55;53.14
71126;BME280;58785;55.566;38.058;2022-11-15T09:51:24;100609.66;;;3.29;54.09
71126;BME280;58785;55.566;38.058;2022-11-15T09:54:34;100610.91;;;3.38;53.45
71126;BME280;58785;55.566;38.058;2022-11-15T09:56:42;100606.06;;;3.46;53.34
71126;BME280;58785;55.566;38.058;2022-11-15T10:04:49;100605.75;;;3.51;53.57
71126;BME280;58785;55.566;38.058;2022-11-15T10:07:17;100597.19;;;3.47;53.69
71126;BME280;58785;55.566;38.058;2022-11-15T10:09:56;100603.72;;;3.56;53.35
71126;BME280;58785;55.566;38.058;2022-11-15T10:12:23;100596.00;;;3.53;53.05
71126;BME280;58785;55.566;38.058;2022-11-15T10:15:00;100598.16;;;3.46;53.30
71126;BME280;58785;55.566;38.058;2022-11-15T10:20:18;100598.13;;;3.32;53.75
71126;BME280;58785;55.566;38.058;2022-11-15T10:22:50;100593.00;;;3.29;53.79
71126;BME280;58785;55.566;38.058;2022-11-15T10:25:23;100592.91;;;3.30;53.25
71126;BME280;58785;55.566;38.058;2022-11-15T10:30:29;100583.41;;;3.28;54.02
71126;BME280;58785;55.566;38.058;2022-11-15T10:32:55;100576.56;;;3.39;53.56
71126;BME280;58785;55.566;38.058;2022-11-15T10:35:23;100577.34;;;3.41;53.72
71126;BME280;58785;55.566;38.058;2022-11-15T10:37:49;100553.53;;;3.43;53.44
71126;BME280;58785;55.566;38.058;2022-11-15T10:40:20;100554.75;;;3.52;53.78
71126;BME280;58785;55.566;38.058;2022-11-15T10:42:47;100548.56;;;3.53;54.04
71126;BME280;58785;55.566;38.058;2022-11-15T10:45:29;100551.84;;;3.56;53.64
71126;BME280;58785;55.566;38.058;2022-11-15T10:48:19;100546.31;;;3.61;53.42
71126;BME280;58785;55.566;38.058;2022-11-15T10:50:46;100535.19;;;3.56;53.54
71126;BME280;58785;55.566;38.058;2022-11-15T10:53:29;100532.53;;;3.56;53.23
71126;BME280;58785;55.566;38.058;2022-11-15T10:55:59;100533.38;;;3.56;53.63
71126;BME280;58785;55.566;38.058;2022-11-15T10:58:43;100538.16;;;3.50;53.55
71126;BME280;58785;55.566;38.058;2022-11-15T11:01:15;100538.16;;;3.50;53.74
71126;BME280;58785;55.566;38.058;2022-11-15T11:03:42;100534.59;;;3.51;53.67
71126;BME280;58785;55.566;38.058;2022-11-15T11:08:34;100519.72;;;3.50;53.62
71126;BME280;58785;55.566;38.058;2022-11-15T11:11:02;100531.94;;;3.51;54.05
71126;BME280;58785;55.566;38.058;2022-11-15T11:13:29;100533.53;;;3.39;53.82
71126;BME280;58785;55.566;38.058;2022-11-15T11:21:55;100515.63;;;3.30;54.14
71126;BME280;58785;55.566;38.058;2022-11-15T11:24:36;100503.09;;;3.19;54.33
71126;BME280;58785;55.566;38.058;2022-11-15T11:27:12;100516.38;;;3.17;54.42
71126;BME280;58785;55.566;38.058;2022-11-15T11:30:04;100510.53;;;3.12;54.17
71126;BME280;58785;55.566;38.058;2022-11-15T11:38:32;100497.72;;;3.06;53.95
71126;BME280;58785;55.566;38.058;2022-11-15T11:52:12;100494.00;;;2.95;53.90
71126;BME280;58785;55.566;38.058;2022-11-15T11:54:48;100485.53;;;2.89;54.55
71126;BME280;58785;55.566;38.058;2022-11-15T12:00:09;100491.31;;;2.80;54.82
71126;BME280;58785;55.566;38.058;2022-11-15T12:02:41;100478.16;;;2.80;54.70
71126;BME280;58785;55.566;38.058;2022-11-15T12:05:51;100486.75;;;2.84;54.71
71126;BME280;58785;55.566;38.058;2022-11-15T12:11:14;100475.59;;;2.79;54.92
71126;BME280;58785;55.566;38.058;2022-11-15T12:13:43;100472.22;;;2.77;55.20
71126;BME280;58785;55.566;38.058;2022-11-15T12:16:19;100464.22;;;2.78;54.70
71126;BME280;58785;55.566;38.058;2022-11-15T12:18:52;100472.03;;;2.80;54.91
71126;BME280;58785;55.566;38.058;2022-11-15T12:24:18;100454.59;;;2.63;55.35
71126;BME280;58785;55.566;38.058;2022-11-15T12:27:01;100457.56;;;2.57;55.34
71126;BME280;58785;55.566;38.058;2022-11-15T12:29:46;100457.84;;;2.52;55.88
71126;BME280;58785;55.566;38.058;2022-11-15T12:32:27;100458.00;;;2.49;55.96
71126;BME280;58785;55.566;38.058;2022-11-15T12:34:54;100444.28;;;2.44;55.99
71126;BME280;58785;55.566;38.058;2022-11-15T12:45:43;100438.69;;;2.19;56.91
71126;BME280;58785;55.566;38.058;2022-11-15T12:58:42;100430.81;;;2.19;57.69
71126;BME280;58785;55.566;38.058;2022-11-15T13:01:10;100432.97;;;2.12;57.95
71126;BME280;58785;55.566;38.058;2022-11-15T13:14:56;100418.50;;;2.19;59.09
71126;BME280;58785;55.566;38.058;2022-11-15T13:22:40;100392.38;;;2.16;59.50
71126;BME280;58785;55.566;38.058;2022-11-15T13:30:41;100407.69;;;1.94;59.97
71126;BME280;58785;55.566;38.058;2022-11-15T13:33:34;100406.31;;;1.87;60.85
71126;BME280;58785;55.566;38.058;2022-11-15T13:36:08;100404.19;;;1.78;60.90
71126;BME280;58785;55.566;38.058;2022-11-15T13:38:39;100393.19;;;1.71;60.93
71126;BME280;58785;55.566;38.058;2022-11-15T13:41:20;100390.13;;;1.63;61.54
71126;BME280;58785;55.566;38.058;2022-11-15T13:43:46;100389.28;;;1.62;61.59
71126;BME280;58785;55.566;38.058;2022-11-15T13:48:41;100383.94;;;1.64;62.49
71126;BME280;58785;55.566;38.058;2022-11-15T13:54:31;100383.56;;;1.70;62.31
71126;BME280;58785;55.566;38.058;2022-11-15T13:57:10;100381.03;;;1.68;62.51
71126;BME280;58785;55.566;38.058;2022-11-15T13:59:46;100381.88;;;1.69;62.42
71126;BME280;58785;55.566;38.058;2022-11-15T14:02:18;100376.22;;;1.61;63.25
71126;BME280;58785;55.566;38.058;2022-11-15T14:04:56;100371.03;;;1.59;63.04
71126;BME280;58785;55.566;38.058;2022-11-15T14:07:25;100366.56;;;1.61;63.32
71126;BME280;58785;55.566;38.058;2022-11-15T14:09:52;100364.00;;;1.60;63.38
71126;BME280;58785;55.566;38.058;2022-11-15T14:12:30;100368.50;;;1.58;63.42
71126;BME280;58785;55.566;38.058;2022-11-15T14:14:58;100371.03;;;1.59;63.72
71126;BME280;58785;55.566;38.058;2022-11-15T14:19:57;100371.28;;;1.55;64.35
71126;BME280;58785;55.566;38.058;2022-11-15T14:22:30;100367.28;;;1.48;64.22
71126;BME280;58785;55.566;38.058;2022-11-15T14:27:39;100363.72;;;1.49;64.69
71126;BME280;58785;55.566;38.058;2022-11-15T14:30:05;100356.03;;;1.46;65.09
71126;BME280;58785;55.566;38.058;2022-11-15T14:32:46;100365.03;;;1.41;65.43
71126;BME280;58785;55.566;38.058;2022-11-15T14:35:19;100362.38;;;1.41;65.15
71126;BME280;58785;55.566;38.058;2022-11-15T14:37:45;100358.06;;;1.40;65.42
71126;BME280;58785;55.566;38.058;2022-11-15T14:40:14;100341.44;;;1.40;65.69
71126;BME280;58785;55.566;38.058;2022-11-15T14:42:41;100349.00;;;1.46;65.63
71126;BME280;58785;55.566;38.058;2022-11-15T14:45:20;100351.63;;;1.46;66.02
71126;BME280;58785;55.566;38.058;2022-11-15T14:47:47;100346.44;;;1.44;65.99
71126;BME280;58785;55.566;38.058;2022-11-15T14:50:17;100340.59;;;1.39;65.85
71126;BME280;58785;55.566;38.058;2022-11-15T14:52:45;100333.13;;;1.32;66.45
71126;BME280;58785;55.566;38.058;2022-11-15T14:55:23;100333.56;;;1.24;66.65
71126;BME280;58785;55.566;38.058;2022-11-15T14:57:49;100330.25;;;1.21;66.91
71126;BME280;58785;55.566;38.058;2022-11-15T15:00:15;100321.44;;;1.22;66.64
71126;BME280;58785;55.566;38.058;2022-11-15T15:02:42;100317.88;;;1.23;67.00
71126;BME280;58785;55.566;38.058;2022-11-15T15:07:41;100310.84;;;1.23;67.16
71126;BME280;58785;55.566;38.058;2022-11-15T15:10:08;100308.44;;;1.19;67.60
71126;BME280;58785;55.566;38.058;2022-11-15T15:12:33;100313.13;;;1.13;67.58
71126;BME280;58785;55.566;38.058;2022-11-15T15:14:59;100306.25;;;1.11;67.39
71126;BME280;58785;55.566;38.058;2022-11-15T15:17:24;100308.94;;;1.09;67.75
71126;BME280;58785;55.566;38.058;2022-11-15T15:19:50;100297.00;;;1.04;67.79
71126;BME280;58785;55.566;38.058;2022-11-15T15:22:18;100302.19;;;1.05;68.17
71126;BME280;58785;55.566;38.058;2022-11-15T15:24:45;100294.72;;;0.98;68.43
71126;BME280;58785;55.566;38.058;2022-11-15T15:27:11;100274.38;;;0.85;68.45
71126;BME280;58785;55.566;38.058;2022-11-15T15:29:37;100298.75;;;0.88;68.91